KHIB

Range Regional Airport

Hibbing, Minnesota, USA
METAR KHIB 161043Z AUTO 08004KT 10SM BKN012 BKN060 M13/M14 A2977 RMK AO2 T11281144
Observed Flight Rules
Dec-16 @ 10:43 UTC (24 minutes ago) Marginal Visual Flight Rules
Wind Visibility Clouds
80° at 4 knots 10 miles
  • Broken at 1,200' AGL
  • Broken at 6,000' AGL
Temperatures Readings
Current -13°C / 9°F
Dewpoint -14°C / 7°F
Humidity 92%
Altimeter 29.77" Hg
Pressure 1008 hPa
Elevation 412
METAR KHIB 161043Z AUTO 08004KT 10SM BKN012 BKN060 M13/M14 A2977 RMK AO2 T11281144
Observed Flight Rules
Dec-16 @ 10:43 UTC
(24 minutes ago)
MVFR
Wind Visibility
80° at 4 knots 10 miles
Clouds
  • Broken at 1,200' AGL
  • Broken at 6,000' AGL
Temperature Dewpoint
-13°C / 9°F -14°C / 7°F
Humidity Altimeter Pressure
92% 29.77" Hg 1008 hPa